Main page
METAR-TAF:

METAR-TAF

Airports :

Palma de Mallorca Airport

Palma de Mallorca, Spain

latitude: 39-33N, longitude: 002-44E, elevation: 4 m

Current weather observation

The report was made 23 minutes ago, at 23:30 UTC
Wind 2 kt from the East/Northeast
Temperature 11°C
Humidity 82%
Pressure 1029 hPa
Visibility 10 km or more
no clouds below 1500 m and no cumulonimbus

METAR: LEPA 122330Z 06002KT CAVOK 11/08 Q1029 NOSIG

Time: 01:53 (23:53 UTC)

Forecast

The report was made 53 minutes ago, at 23:00 UTC
Forecast valid from 13 at 00 UTC to 13 at 24 UTC
Wind 4 kt from variable directions
Visibility 10 km or more
no clouds below 1500 m and no cumulonimbus
Becoming
from 13 at 10 UTC to 13 at 12 UTC
Wind 9 kt from the South/Southwest
Becoming
from 13 at 17 UTC to 13 at 19 UTC
Wind 4 kt from variable directions

TAF: LEPA 122300Z 1300/1324 VRB04KT CAVOK TX28/1312Z TN10/1306Z BECMG 1310/1312 20009KT BECMG 1317/1319 VRB04KT

Weather observations and forecasts of more than 4000 airports (METAR and TAF reports).

The available stations are represented by yellow and red dots on the map.

Hover mouse over dot to see the name of the station.

Then click to see weather observations and forecasts.

To change the map : click on the green buttons with a black cross to zoom in, on the green button with a dash to zoom out, or on the green arrows for adjacent maps.


METAR-TAF: